Time;durP1;ratioP1;P1;durP2;ratioP2;P2;SDS_P1;SDS_P2;PMS_P1;PMS_P2;Temp;Humidity;BMP_temperature;BMP_pressure;BME280_temperature;BME280_humidity;BME280_pressure;Samples;Min_cycle;Max_cycle;Signal;HPM_P1;HPM_P2
2024/03/22 00:00:11;;;;;;;50.63;31.45;;;12.10;99.90;;;;;;4974753;28;20102;-93
2024/03/22 00:02:37;;;;;;;58.35;33.28;;;12.10;99.90;;;;;;4974069;28;20031;-92
2024/03/22 00:05:03;;;;;;;60.08;32.10;;;12.30;99.90;;;;;;4974272;28;20023;-93
2024/03/22 00:07:28;;;;;;;56.85;33.28;;;12.10;99.90;;;;;;4974357;28;20041;-92
2024/03/22 00:09:54;;;;;;;54.22;32.22;;;12.10;99.90;;;;;;4974342;28;20023;-92
2024/03/22 00:12:20;;;;;;;56.75;32.85;;;12.10;99.90;;;;;;4973900;28;20030;-92
2024/03/22 00:14:45;;;;;;;53.42;34.03;;;12.10;99.90;;;;;;4974531;28;20066;-92
2024/03/22 00:17:11;;;;;;;48.65;30.98;;;12.10;99.90;;;;;;4974745;28;20035;-92
2024/03/22 00:19:36;;;;;;;63.78;32.63;;;12.10;99.90;;;;;;4973974;28;20049;-92
2024/03/22 00:22:02;;;;;;;52.17;30.25;;;12.10;99.90;;;;;;4972016;28;20113;-92
2024/03/22 00:24:27;;;;;;;56.53;31.20;;;12.10;99.90;;;;;;4966884;28;20026;-91
2024/03/22 00:26:53;;;;;;;52.05;30.10;;;12.00;99.90;;;;;;4974371;28;20031;-92
2024/03/22 00:29:19;;;;;;;48.03;30.33;;;12.00;99.90;;;;;;4974621;28;20470;-92
2024/03/22 00:31:44;;;;;;;53.95;30.98;;;12.00;99.90;;;;;;4974540;28;20034;-92
2024/03/22 00:34:10;;;;;;;55.17;30.88;;;12.00;99.90;;;;;;4974435;28;20019;-92
2024/03/22 00:36:35;;;;;;;51.25;31.35;;;11.90;99.90;;;;;;4974085;28;20102;-92
2024/03/22 00:39:01;;;;;;;57.03;31.88;;;12.00;99.90;;;;;;4974043;28;20019;-92
2024/03/22 00:41:27;;;;;;;51.28;29.98;;;12.00;99.90;;;;;;4974449;28;20033;-92
2024/03/22 00:43:52;;;;;;;55.38;29.88;;;12.40;99.90;;;;;;4974699;28;20035;-91
2024/03/22 00:46:18;;;;;;;49.40;28.25;;;12.00;99.90;;;;;;4963214;28;20042;-92
2024/03/22 00:48:43;;;;;;;51.47;28.90;;;12.00;99.90;;;;;;4974248;28;20023;-91
2024/03/22 00:51:09;;;;;;;47.90;28.85;;;12.00;99.90;;;;;;4974181;28;20086;-91
2024/03/22 00:53:34;;;;;;;47.92;28.40;;;12.00;99.90;;;;;;4974234;28;20040;-91
2024/03/22 00:56:00;;;;;;;47.45;28.83;;;12.00;99.90;;;;;;4973772;28;20031;-91
2024/03/22 00:58:29;;;;;;;51.65;29.38;;;11.90;99.90;;;;;;4973537;28;20033;-92
2024/03/22 01:00:55;;;;;;;52.20;29.38;;;11.90;99.90;;;;;;4973551;28;20023;-91
2024/03/22 01:03:23;;;;;;;49.22;30.58;;;12.00;99.90;;;;;;4974190;28;20027;-91
2024/03/22 01:05:49;;;;;;;58.95;30.67;;;11.90;99.90;;;;;;4973248;28;20035;-90
2024/03/22 01:08:15;;;;;;;52.10;29.92;;;11.90;99.90;;;;;;4973191;28;20122;-90
2024/03/22 01:10:41;;;;;;;49.72;30.33;;;12.50;99.90;;;;;;4973863;28;20058;-91
2024/03/22 01:13:07;;;;;;;46.05;28.90;;;11.80;99.90;;;;;;4975221;28;20471;-91
2024/03/22 01:15:32;;;;;;;57.47;30.60;;;11.80;99.90;;;;;;4973433;28;20057;-92
2024/03/22 01:17:58;;;;;;;51.38;30.35;;;11.80;99.90;;;;;;4973949;28;20023;-93
2024/03/22 01:20:24;;;;;;;51.20;30.92;;;11.80;99.90;;;;;;4973542;28;20114;-90
2024/03/22 01:22:49;;;;;;;57.95;31.95;;;11.70;99.90;;;;;;4973284;28;20027;-92
2024/03/22 01:25:15;;;;;;;53.78;30.42;;;11.60;99.90;;;;;;4972594;28;20038;-92
2024/03/22 01:27:40;;;;;;;57.75;30.67;;;11.60;99.90;;;;;;4973853;28;20039;-90
2024/03/22 01:30:06;;;;;;;63.58;34.38;;;11.60;99.90;;;;;;4976170;28;20049;-90
2024/03/22 01:32:32;;;;;;;64.13;34.78;;;11.50;99.90;;;;;;4976179;28;20053;-90
2024/03/22 01:34:57;;;;;;;65.43;35.40;;;11.40;99.90;;;;;;4976249;28;20030;-92
2024/03/22 01:37:23;;;;;;;64.22;37.55;;;11.40;99.90;;;;;;4976839;28;20027;-91
2024/03/22 01:39:49;;;;;;;66.45;36.63;;;11.30;99.90;;;;;;4983691;28;20097;-91
2024/03/22 01:42:14;;;;;;;77.88;39.42;;;11.30;99.90;;;;;;4977787;28;20034;-90
2024/03/22 01:44:41;;;;;;;69.25;37.40;;;11.20;99.90;;;;;;4976822;28;20027;-91
2024/03/22 01:47:07;;;;;;;72.05;38.40;;;11.20;99.90;;;;;;4976115;28;20039;-91
2024/03/22 01:49:33;;;;;;;75.40;39.85;;;11.20;99.90;;;;;;4976683;28;20256;-91
2024/03/22 01:51:59;;;;;;;72.63;38.72;;;11.10;99.90;;;;;;4976527;28;20105;-91
2024/03/22 01:54:24;;;;;;;77.28;40.10;;;11.20;99.90;;;;;;4976541;28;20471;-91
2024/03/22 01:56:50;;;;;;;75.53;37.97;;;11.20;99.90;;;;;;4995940;28;20034;-91
2024/03/22 01:59:16;;;;;;;79.05;39.97;;;11.20;99.90;;;;;;4989717;28;20050;-90
2024/03/22 02:01:42;;;;;;;79.25;40.15;;;11.20;99.90;;;;;;4976658;28;20031;-92
2024/03/22 02:04:07;;;;;;;79.32;41.33;;;11.20;99.90;;;;;;4976830;28;20019;-92
2024/03/22 02:06:33;;;;;;;83.10;42.22;;;10.90;99.90;;;;;;4976807;28;20035;-92
2024/03/22 02:08:58;;;;;;;84.75;42.30;;;11.10;99.90;;;;;;4975276;28;20042;-90
2024/03/22 02:11:26;;;;;;;81.82;42.42;;;11.00;99.90;;;;;;4976154;28;20419;-90
2024/03/22 02:13:51;;;;;;;83.93;43.42;;;11.00;99.90;;;;;;4977846;28;20034;-91
2024/03/22 02:16:17;;;;;;;79.47;41.53;;;11.00;99.90;;;;;;4976375;28;20034;-90
2024/03/22 02:18:44;;;;;;;85.70;42.95;;;11.00;99.90;;;;;;4976539;28;20023;-90
2024/03/22 02:21:10;;;;;;;82.20;41.28;;;10.90;99.90;;;;;;4976958;28;20497;-91
2024/03/22 02:23:37;;;;;;;78.40;40.45;;;10.90;99.90;;;;;;4976625;28;20070;-90
2024/03/22 02:26:04;;;;;;;82.95;40.58;;;10.90;99.90;;;;;;4975637;28;20471;-90
2024/03/22 02:28:30;;;;;;;75.25;39.10;;;10.90;99.90;;;;;;4976131;28;20034;-90
2024/03/22 02:30:56;;;;;;;78.40;39.47;;;10.80;99.90;;;;;;4974760;28;20082;-90
2024/03/22 02:33:21;;;;;;;71.32;37.50;;;10.80;99.90;;;;;;4978660;28;20031;-90
2024/03/22 02:35:48;;;;;;;80.25;38.90;;;10.80;99.90;;;;;;4978798;28;20074;-90
2024/03/22 02:38:13;;;;;;;73.85;36.65;;;10.80;99.90;;;;;;4989345;28;20038;-91
2024/03/22 02:40:39;;;;;;;76.45;36.15;;;10.70;99.90;;;;;;4995754;28;20026;-90
2024/03/22 02:43:05;;;;;;;65.25;31.85;;;10.80;99.90;;;;;;4995608;28;20030;-91
2024/03/22 02:45:31;;;;;;;64.82;34.08;;;10.80;99.90;;;;;;4995266;28;20142;-92
2024/03/22 02:47:56;;;;;;;71.75;32.78;;;10.80;99.90;;;;;;4995296;28;20041;-91
2024/03/22 02:50:22;;;;;;;64.05;31.10;;;10.90;99.90;;;;;;4990042;28;20106;-90
2024/03/22 02:52:50;;;;;;;58.45;30.73;;;10.90;99.90;;;;;;4975632;28;20027;-91
2024/03/22 02:55:16;;;;;;;61.00;29.77;;;10.90;99.90;;;;;;4957533;28;20031;-91
2024/03/22 02:57:41;;;;;;;62.08;30.73;;;10.90;99.90;;;;;;4958373;28;20028;-91
2024/03/22 03:00:08;;;;;;;65.40;31.30;;;10.80;99.90;;;;;;4977960;28;20037;-92
2024/03/22 03:02:33;;;;;;;64.85;31.38;;;10.80;99.90;;;;;;4981148;28;20462;-93
2024/03/22 03:04:59;;;;;;;65.20;32.05;;;10.80;99.90;;;;;;4976377;28;20485;-91
2024/03/22 03:07:25;;;;;;;64.97;31.38;;;10.80;99.90;;;;;;4975706;28;20034;-93
2024/03/22 03:09:51;;;;;;;59.67;30.52;;;10.80;99.90;;;;;;4975213;28;20513;-91
2024/03/22 03:12:16;;;;;;;55.70;30.83;;;10.80;99.90;;;;;;4979116;28;20034;-92
2024/03/22 03:14:42;;;;;;;57.10;29.08;;;10.80;99.90;;;;;;4990317;28;20079;-93
2024/03/22 03:17:08;;;;;;;63.63;31.55;;;10.80;99.90;;;;;;4977806;28;20082;-91
2024/03/22 03:19:33;;;;;;;62.78;30.75;;;10.80;99.90;;;;;;4975686;28;20038;-92
2024/03/22 03:21:59;;;;;;;63.88;30.55;;;10.80;99.90;;;;;;4976509;28;20485;-91
2024/03/22 03:24:24;;;;;;;59.78;30.60;;;10.90;99.90;;;;;;4976155;28;20054;-91
2024/03/22 03:26:50;;;;;;;61.38;30.02;;;10.90;99.90;;;;;;4978515;28;20427;-90
2024/03/22 03:29:15;;;;;;;65.70;30.73;;;10.90;99.90;;;;;;4981599;28;20034;-91
2024/03/22 03:31:41;;;;;;;51.20;27.65;;;10.90;99.90;;;;;;4981900;28;20033;-90
2024/03/22 03:34:07;;;;;;;49.78;29.98;;;10.90;99.90;;;;;;4972917;28;20023;-92
2024/03/22 03:36:32;;;;;;;55.47;30.77;;;11.00;99.90;;;;;;4985505;28;20022;-92
2024/03/22 03:38:58;;;;;;;54.17;29.55;;;11.00;99.90;;;;;;4994131;28;20073;-91
2024/03/22 03:41:23;;;;;;;59.10;32.38;;;11.00;99.90;;;;;;4994602;28;20023;-92
2024/03/22 03:43:49;;;;;;;57.05;31.50;;;11.60;99.90;;;;;;4994444;28;20419;-91
2024/03/22 03:46:14;;;;;;;59.40;31.70;;;11.00;99.90;;;;;;4994505;28;20385;-92
2024/03/22 03:48:40;;;;;;;55.72;31.35;;;11.00;99.90;;;;;;4993882;28;20100;-91
2024/03/22 03:51:05;;;;;;;55.97;30.17;;;11.00;99.90;;;;;;4992430;28;20026;-91
2024/03/22 03:53:31;;;;;;;64.13;29.75;;;11.00;99.90;;;;;;4975164;28;20106;-92
2024/03/22 03:55:56;;;;;;;66.07;32.42;;;10.90;99.90;;;;;;4973194;28;20074;-92
2024/03/22 03:58:22;;;;;;;50.03;28.55;;;11.00;99.90;;;;;;4971878;28;20030;-92
2024/03/22 04:00:48;;;;;;;59.47;31.55;;;11.00;99.90;;;;;;4974913;28;20037;-92
2024/03/22 04:03:14;;;;;;;56.40;31.60;;;11.00;99.90;;;;;;4974427;28;20070;-92
2024/03/22 04:05:39;;;;;;;56.22;33.00;;;11.00;99.90;;;;;;4975046;28;20030;-93
2024/03/22 04:08:05;;;;;;;58.92;33.05;;;11.00;99.90;;;;;;4974586;28;20122;-91
2024/03/22 04:10:31;;;;;;;62.58;33.88;;;11.00;99.90;;;;;;4974916;28;20101;-91
2024/03/22 04:12:57;;;;;;;64.60;33.60;;;11.00;99.90;;;;;;4974451;28;20039;-91
2024/03/22 04:15:22;;;;;;;61.35;32.75;;;11.00;99.90;;;;;;4974020;28;20578;-90
2024/03/22 04:17:48;;;;;;;65.30;35.13;;;11.00;99.90;;;;;;4974236;28;20062;-92
2024/03/22 04:20:13;;;;;;;64.25;36.10;;;10.90;99.90;;;;;;4974381;28;20471;-90
2024/03/22 04:22:39;;;;;;;59.67;34.22;;;10.90;99.90;;;;;;4976762;28;20031;-91
2024/03/22 04:25:05;;;;;;;66.68;35.88;;;10.90;99.90;;;;;;4966651;28;20035;-91
2024/03/22 04:27:31;;;;;;;66.72;35.30;;;10.90;99.90;;;;;;4974484;28;20195;-93
2024/03/22 04:29:56;;;;;;;67.47;35.95;;;10.90;99.90;;;;;;4974075;28;20113;-91
2024/03/22 04:32:22;;;;;;;62.95;34.65;;;10.90;99.90;;;;;;4974313;28;20023;-90
2024/03/22 04:34:47;;;;;;;62.80;35.75;;;10.90;99.90;;;;;;4974268;28;20074;-92
2024/03/22 04:37:13;;;;;;;58.75;33.78;;;10.90;99.90;;;;;;4979308;28;20038;-91
2024/03/22 04:39:40;;;;;;;60.67;34.65;;;10.80;99.90;;;;;;4967160;28;20126;-91
2024/03/22 04:42:06;;;;;;;61.22;35.17;;;10.80;99.90;;;;;;4975152;28;20041;-91
2024/03/22 04:44:31;;;;;;;61.33;34.45;;;10.80;99.90;;;;;;4973837;28;20113;-89
2024/03/22 04:46:57;;;;;;;61.55;33.85;;;11.00;99.90;;;;;;4973561;28;20037;-91
2024/03/22 04:49:23;;;;;;;62.30;33.67;;;10.70;99.90;;;;;;4977205;28;20027;-90
2024/03/22 04:51:48;;;;;;;63.03;34.35;;;10.70;99.90;;;;;;4977265;28;20038;-91
2024/03/22 04:54:14;;;;;;;68.72;36.70;;;10.70;99.90;;;;;;4973920;28;20110;-92
2024/03/22 04:56:40;;;;;;;59.60;34.63;;;10.70;99.90;;;;;;4974157;28;20042;-91
2024/03/22 04:59:05;;;;;;;66.82;36.13;;;10.70;99.90;;;;;;4975368;28;20030;-92
2024/03/22 05:01:31;;;;;;;66.32;35.28;;;10.50;99.90;;;;;;4977783;28;20130;-92
2024/03/22 05:03:56;;;;;;;66.22;34.55;;;10.60;99.90;;;;;;4977112;28;20030;-92
2024/03/22 05:06:22;;;;;;;69.07;32.13;;;10.50;99.90;;;;;;4978212;28;20035;-90
2024/03/22 05:08:47;;;;;;;58.72;32.55;;;11.70;99.90;;;;;;4977908;28;20479;-91
2024/03/22 05:11:13;;;;;;;62.20;31.92;;;10.00;99.90;;;;;;4977761;28;20078;-92
2024/03/22 05:13:41;;;;;;;66.35;33.40;;;10.50;99.90;;;;;;4990556;28;20038;-91
2024/03/22 05:16:07;;;;;;;61.00;31.63;;;10.50;99.90;;;;;;4997966;28;20054;-90
2024/03/22 05:18:33;;;;;;;60.15;32.47;;;10.40;99.90;;;;;;5000380;28;20022;-92
2024/03/22 05:20:58;;;;;;;68.22;32.17;;;10.40;99.90;;;;;;4979265;28;20038;-92
2024/03/22 05:23:24;;;;;;;57.13;31.77;;;10.40;99.90;;;;;;4978197;28;20379;-91
2024/03/22 05:25:50;;;;;;;58.60;31.77;;;10.40;99.90;;;;;;4996390;28;20057;-92
2024/03/22 05:28:15;;;;;;;53.28;31.10;;;10.40;99.90;;;;;;4984474;28;20442;-90
2024/03/22 05:30:41;;;;;;;59.75;31.13;;;10.40;99.90;;;;;;4978700;28;20065;-92
2024/03/22 05:33:06;;;;;;;53.70;29.17;;;10.30;99.90;;;;;;4979215;28;20027;-91
2024/03/22 05:35:32;;;;;;;56.65;28.30;;;10.40;99.90;;;;;;4978459;28;20042;-91
2024/03/22 05:37:57;;;;;;;52.25;29.00;;;10.40;99.90;;;;;;4978241;28;20105;-92
2024/03/22 05:40:23;;;;;;;49.55;29.55;;;10.40;99.90;;;;;;4962294;28;20042;-91
2024/03/22 05:42:49;;;;;;;55.00;28.77;;;10.40;99.90;;;;;;4977872;28;20027;-92
2024/03/22 05:45:14;;;;;;;50.08;27.95;;;10.40;99.90;;;;;;4977050;28;20031;-92
2024/03/22 05:47:40;;;;;;;45.63;27.42;;;10.40;99.90;;;;;;4984501;28;20057;-92
2024/03/22 05:50:09;;;;;;;45.42;26.73;;;10.40;99.90;;;;;;4977541;28;20049;-90
2024/03/22 05:52:34;;;;;;;53.30;29.55;;;10.40;99.90;;;;;;4976973;28;20031;-91
2024/03/22 05:55:00;;;;;;;54.25;28.60;;;10.40;99.90;;;;;;4984038;28;20015;-93
2024/03/22 05:57:26;;;;;;;54.83;28.45;;;10.40;99.90;;;;;;4995455;28;20077;-91
2024/03/22 05:59:53;;;;;;;47.00;27.52;;;10.40;99.90;;;;;;4977039;28;20025;-93
2024/03/22 06:02:18;;;;;;;48.35;27.38;;;10.40;99.90;;;;;;4993700;28;20061;-95
2024/03/22 06:04:44;;;;;;;43.42;25.77;;;10.50;99.90;;;;;;5008008;28;20026;-94
2024/03/22 06:07:10;;;;;;;46.13;26.15;;;10.50;99.90;;;;;;5004949;28;20045;-95
2024/03/22 06:09:45;;;;;;;52.08;28.77;;;10.50;99.90;;;;;;4997893;28;20042;-91
2024/03/22 06:12:15;;;;;;;48.90;27.30;;;10.50;99.90;;;;;;5591420;23;20042;-89
2024/03/22 06:14:42;;;;;;;44.87;26.70;;;10.00;99.90;;;;;;4987890;28;20042;-93
2024/03/22 06:17:08;;;;;;;51.60;27.98;;;10.80;99.90;;;;;;4981492;28;20030;-93
2024/03/22 06:19:35;;;;;;;47.28;27.38;;;10.40;99.90;;;;;;4988073;28;20041;-91
2024/03/22 06:22:01;;;;;;;52.05;26.88;;;10.40;99.90;;;;;;4996821;28;20482;-93
2024/03/22 06:24:27;;;;;;;45.40;27.25;;;10.60;99.90;;;;;;4995571;28;20026;-90
2024/03/22 06:26:55;;;;;;;56.55;28.95;;;11.70;99.90;;;;;;4991996;28;20474;-93
2024/03/22 06:29:30;;;;;;;60.50;29.23;;;11.60;99.90;;;;;;4995836;28;20510;-94
2024/03/22 06:31:55;;;;;;;48.72;27.90;;;11.80;99.90;;;;;;4982191;28;20093;-94
2024/03/22 06:34:21;;;;;;;57.60;30.65;;;11.70;99.90;;;;;;4988651;28;20027;-93
2024/03/22 06:36:47;;;;;;;56.17;30.75;;;11.40;99.90;;;;;;4979403;28;20030;-95
2024/03/22 06:39:13;;;;;;;56.92;31.90;;;11.50;99.90;;;;;;4995161;28;20102;-93
2024/03/22 06:41:38;;;;;;;61.70;31.33;;;10.50;99.90;;;;;;4982656;28;20045;-92
2024/03/22 06:44:04;;;;;;;57.58;30.55;;;10.60;99.90;;;;;;4988051;28;20475;-93
2024/03/22 06:46:30;;;;;;;62.10;31.05;;;10.50;99.90;;;;;;4989707;28;20034;-92
2024/03/22 06:48:56;;;;;;;62.42;31.45;;;10.50;99.90;;;;;;4982144;28;20385;-93
2024/03/22 06:51:21;;;;;;;56.67;31.92;;;10.60;99.90;;;;;;4995538;28;20022;-93
2024/03/22 06:53:47;;;;;;;65.57;31.63;;;10.50;99.90;;;;;;4994774;28;20030;-93
2024/03/22 06:56:13;;;;;;;60.72;32.58;;;11.60;99.90;;;;;;4995271;28;20027;-92
2024/03/22 06:58:39;;;;;;;59.55;31.17;;;10.50;99.90;;;;;;4995003;28;20033;-92
2024/03/22 07:01:04;;;;;;;56.25;30.55;;;10.50;99.90;;;;;;4995223;28;20394;-92
2024/03/22 07:03:30;;;;;;;58.47;32.30;;;10.50;99.90;;;;;;4987993;28;20019;-93
2024/03/22 07:05:57;;;;;;;60.60;32.38;;;11.90;99.90;;;;;;5000858;28;20587;-92
2024/03/22 07:08:23;;;;;;;56.63;30.60;;;10.60;99.90;;;;;;4996863;28;20061;-92
2024/03/22 07:10:53;;;;;;;67.22;33.28;;;10.60;99.90;;;;;;4995067;28;20383;-93
2024/03/22 07:13:19;;;;;;;55.83;30.77;;;11.10;99.90;;;;;;4995123;28;20043;-91
2024/03/22 07:15:47;;;;;;;52.60;29.55;;;10.60;99.90;;;;;;4995221;28;20034;-93
2024/03/22 07:18:14;;;;;;;59.50;28.65;;;10.60;99.90;;;;;;4995352;28;20370;-92
2024/03/22 07:20:39;;;;;;;48.35;26.52;;;10.60;99.90;;;;;;4995637;28;20022;-93
2024/03/22 07:23:05;;;;;;;54.05;27.55;;;10.60;99.90;;;;;;4994493;28;20030;-93
2024/03/22 07:25:30;;;;;;;48.88;26.10;;;10.60;99.90;;;;;;4995790;28;20026;-93
2024/03/22 07:27:56;;;;;;;57.50;25.33;;;12.10;99.90;;;;;;4995265;28;20127;-93
2024/03/22 07:30:22;;;;;;;54.33;27.25;;;10.60;99.90;;;;;;4995587;28;20026;-92
2024/03/22 07:32:48;;;;;;;55.08;27.10;;;10.60;99.90;;;;;;4995179;28;20489;-93
2024/03/22 07:35:13;;;;;;;45.78;25.00;;;10.70;99.90;;;;;;4994983;28;20022;-92
2024/03/22 07:37:39;;;;;;;53.15;26.30;;;10.70;99.90;;;;;;4997075;28;20034;-93
2024/03/22 07:40:05;;;;;;;51.10;25.05;;;10.70;99.90;;;;;;4995752;28;20040;-94
2024/03/22 07:42:31;;;;;;;49.25;25.17;;;10.70;99.90;;;;;;4997232;28;20425;-93
2024/03/22 07:44:56;;;;;;;44.13;22.60;;;10.70;99.90;;;;;;4987610;28;20030;-93
2024/03/22 07:47:22;;;;;;;48.92;22.75;;;10.70;99.90;;;;;;4982054;28;20387;-92
2024/03/22 07:49:47;;;;;;;46.03;22.23;;;11.20;99.90;;;;;;4994902;28;20015;-93
2024/03/22 07:52:13;;;;;;;49.20;22.60;;;10.70;99.90;;;;;;5000933;28;20034;-95
2024/03/22 07:54:38;;;;;;;55.22;21.52;;;10.60;99.90;;;;;;4992533;28;20096;-95
2024/03/22 07:57:04;;;;;;;42.00;20.15;;;10.70;99.90;;;;;;4999670;28;20030;-94
2024/03/22 07:59:34;;;;;;;52.80;21.45;;;10.60;99.90;;;;;;5003941;28;20014;-93
2024/03/22 08:02:01;;;;;;;41.20;20.73;;;11.60;99.90;;;;;;5001301;28;20037;-94
2024/03/22 08:04:28;;;;;;;41.47;19.20;;;12.00;99.90;;;;;;5005342;28;20022;-93
2024/03/22 08:06:53;;;;;;;40.63;18.35;;;10.90;99.90;;;;;;5000790;28;20046;-95
2024/03/22 08:09:19;;;;;;;43.80;18.20;;;11.20;99.90;;;;;;4979107;28;20023;-93
2024/03/22 08:11:45;;;;;;;39.25;16.80;;;10.50;99.90;;;;;;4976682;28;20031;-94
2024/03/22 08:14:10;;;;;;;35.28;17.60;;;10.40;99.90;;;;;;4976148;28;20039;-94
2024/03/22 08:16:36;;;;;;;28.20;15.38;;;11.10;99.90;;;;;;4976081;28;20027;-94
2024/03/22 08:19:02;;;;;;;35.38;15.10;;;12.30;99.90;;;;;;4975678;28;20443;-93
2024/03/22 08:21:27;;;;;;;35.22;16.60;;;12.20;99.90;;;;;;4981915;28;20063;-92
2024/03/22 08:23:53;;;;;;;31.75;15.23;;;11.80;99.90;;;;;;4996082;28;20023;-93
2024/03/22 08:26:19;;;;;;;40.45;16.20;;;10.70;99.90;;;;;;4999775;28;20034;-93
2024/03/22 08:28:46;;;;;;;38.45;16.10;;;10.70;99.90;;;;;;5005450;28;20097;-94
2024/03/22 08:31:25;;;;;;;38.70;14.35;;;10.70;99.90;;;;;;5003696;28;20102;-95
2024/03/22 08:33:55;;;;;;;35.40;15.77;;;11.50;99.90;;;;;;5000619;28;20038;-93
2024/03/22 08:36:21;;;;;;;31.85;14.93;;;10.80;99.90;;;;;;5012265;28;20026;-94
2024/03/22 08:38:47;;;;;;;29.52;14.82;;;11.00;99.90;;;;;;5011368;28;20031;-92
2024/03/22 08:41:12;;;;;;;29.75;14.05;;;10.80;99.90;;;;;;5003729;28;20042;-93
2024/03/22 08:43:38;;;;;;;30.58;13.95;;;10.80;99.90;;;;;;5000643;28;20382;-90
2024/03/22 08:46:12;;;;;;;34.08;14.45;;;11.90;99.90;;;;;;5002773;28;20034;-93
2024/03/22 08:48:43;;;;;;;37.70;14.30;;;10.60;99.90;;;;;;5018717;28;20026;-95
2024/03/22 08:51:09;;;;;;;31.17;14.02;;;12.00;99.90;;;;;;4998686;28;20097;-90
2024/03/22 08:53:35;;;;;;;37.72;13.50;;;12.10;99.90;;;;;;5001906;28;20491;-91
2024/03/22 08:56:00;;;;;;;34.75;13.85;;;12.20;99.90;;;;;;5000853;28;20026;-92
2024/03/22 08:58:41;;;;;;;31.05;13.85;;;10.50;99.90;;;;;;5056058;23;20069;-90
2024/03/22 09:01:09;;;;;;;34.35;13.88;;;10.80;99.90;;;;;;4993336;28;20035;-92
2024/03/22 09:03:51;;;;;;;34.75;14.15;;;11.60;99.90;;;;;;4993559;28;20149;-91
2024/03/22 09:06:17;;;;;;;33.63;14.13;;;11.60;99.90;;;;;;4995304;28;20042;-91
2024/03/22 09:08:43;;;;;;;34.63;14.07;;;10.40;99.90;;;;;;4993822;28;20534;-90
2024/03/22 09:11:08;;;;;;;31.83;14.32;;;10.60;99.90;;;;;;5010985;28;20006;-91
2024/03/22 09:13:35;;;;;;;31.63;13.93;;;10.50;99.90;;;;;;5014787;28;20033;-84
2024/03/22 09:16:01;;;;;;;33.92;14.65;;;10.50;99.90;;;;;;5011825;28;20029;-87
2024/03/22 09:18:27;;;;;;;37.28;14.15;;;10.50;99.90;;;;;;5012555;28;20466;-86
2024/03/22 09:20:53;;;;;;;37.25;14.27;;;10.50;99.90;;;;;;5012437;28;20109;-85
2024/03/22 09:23:19;;;;;;;35.47;15.15;;;10.50;99.90;;;;;;5014183;28;20060;-91
2024/03/22 09:25:47;;;;;;;38.13;13.45;;;10.40;99.90;;;;;;5017288;28;20018;-94
2024/03/22 09:28:15;;;;;;;26.58;13.50;;;10.40;99.90;;;;;;5684353;22;20061;-90
2024/03/22 09:30:43;;;;;;;27.52;13.20;;;10.10;99.90;;;;;;5013050;28;20041;-89
2024/03/22 09:33:09;;;;;;;38.63;14.95;;;10.40;99.90;;;;;;5006119;28;20062;-92
2024/03/22 09:35:34;;;;;;;42.00;15.25;;;10.40;99.90;;;;;;4993658;28;20026;-92
2024/03/22 09:38:00;;;;;;;26.67;13.20;;;10.40;99.90;;;;;;4999009;28;20081;-91
2024/03/22 09:40:25;;;;;;;29.38;15.23;;;10.50;99.90;;;;;;5014924;28;20465;-91
2024/03/22 09:42:53;;;;;;;24.40;12.93;;;11.50;99.90;;;;;;5033273;28;20377;-92
2024/03/22 09:45:20;;;;;;;36.28;13.32;;;10.40;99.90;;;;;;5036775;28;20029;-91
2024/03/22 09:47:49;;;;;;;32.92;13.80;;;10.90;99.90;;;;;;5016395;28;20034;-89
2024/03/22 09:50:15;;;;;;;25.55;12.50;;;10.30;99.90;;;;;;5016790;28;20478;-92
2024/03/22 09:52:42;;;;;;;26.58;12.48;;;10.40;99.90;;;;;;5002705;28;20045;-91
2024/03/22 09:55:09;;;;;;;24.70;13.02;;;10.40;99.90;;;;;;5023007;28;20049;-93
2024/03/22 09:57:38;;;;;;;27.73;13.55;;;10.30;99.90;;;;;;5035901;28;20508;-90
2024/03/22 10:00:07;;;;;;;39.83;15.40;;;10.40;99.90;;;;;;4996255;28;20378;-90
2024/03/22 10:02:34;;;;;;;27.35;14.23;;;10.40;99.90;;;;;;5006046;28;20032;-89
2024/03/22 10:04:59;;;;;;;25.73;15.25;;;10.40;99.90;;;;;;5014599;28;20025;-86
2024/03/22 10:07:25;;;;;;;31.10;15.07;;;10.40;99.90;;;;;;5016146;28;20034;-94
2024/03/22 10:09:58;;;;;;;27.17;14.60;;;10.40;99.90;;;;;;5009176;28;20482;-94
2024/03/22 10:12:25;;;;;;;30.05;15.88;;;10.40;99.90;;;;;;5001467;28;20050;-92
2024/03/22 10:14:52;;;;;;;30.92;14.88;;;10.40;99.90;;;;;;5008970;28;20042;-90
2024/03/22 10:17:18;;;;;;;32.72;15.60;;;10.40;99.90;;;;;;5001680;28;20114;-91
2024/03/22 10:19:43;;;;;;;27.17;14.95;;;10.40;99.90;;;;;;5001106;28;20038;-90
2024/03/22 10:22:09;;;;;;;33.83;16.73;;;11.20;99.90;;;;;;5001872;28;20038;-90
2024/03/22 10:24:36;;;;;;;26.42;16.40;;;10.50;99.90;;;;;;5005667;28;20064;-93
2024/03/22 10:27:01;;;;;;;33.55;16.45;;;10.90;99.90;;;;;;5012644;28;20041;-92
2024/03/22 10:29:28;;;;;;;38.63;17.58;;;10.50;99.90;;;;;;5022320;28;20042;-88
2024/03/22 10:31:55;;;;;;;45.95;18.63;;;10.50;99.90;;;;;;5014402;28;20025;-95
2024/03/22 10:34:22;;;;;;;43.85;17.77;;;10.40;99.90;;;;;;5015147;28;20030;-92
2024/03/22 10:36:48;;;;;;;29.63;16.17;;;10.50;99.90;;;;;;5014840;28;20022;-91
2024/03/22 10:39:18;;;;;;;33.55;17.35;;;10.50;99.90;;;;;;5015462;28;20030;-89
2024/03/22 10:41:45;;;;;;;30.15;16.52;;;10.40;99.90;;;;;;5016469;28;20050;-90
2024/03/22 10:44:12;;;;;;;37.05;18.25;;;10.50;99.90;;;;;;5012591;28;20529;-89
2024/03/22 10:46:40;;;;;;;39.22;18.23;;;10.50;99.90;;;;;;5016693;28;20037;-87
2024/03/22 10:49:06;;;;;;;30.35;16.45;;;10.60;99.90;;;;;;4997126;28;20109;-89
2024/03/22 10:51:35;;;;;;;33.67;16.20;;;10.60;99.90;;;;;;5015139;28;20441;-90
2024/03/22 10:54:03;;;;;;;28.70;15.60;;;10.60;99.90;;;;;;5018100;28;20030;-91
2024/03/22 10:56:30;;;;;;;30.73;16.60;;;10.60;99.90;;;;;;5013948;28;20029;-91
2024/03/22 10:58:56;;;;;;;34.78;15.50;;;10.60;99.90;;;;;;5009306;28;20061;-88
2024/03/22 11:01:24;;;;;;;29.25;16.65;;;10.60;99.90;;;;;;5011378;28;20068;-87
2024/03/22 11:03:50;;;;;;;26.33;14.40;;;10.70;99.90;;;;;;5010617;28;20034;-88
2024/03/22 11:06:20;;;;;;;31.38;14.90;;;10.70;99.90;;;;;;5016437;28;20042;-87
2024/03/22 11:08:50;;;;;;;27.25;13.88;;;10.70;99.90;;;;;;5011467;28;20493;-87
2024/03/22 11:11:19;;;;;;;24.58;14.25;;;10.70;99.90;;;;;;5014328;28;20030;-90
2024/03/22 11:13:48;;;;;;;28.77;15.18;;;10.70;99.90;;;;;;5013301;28;20497;-88
2024/03/22 11:16:15;;;;;;;21.60;12.63;;;10.70;99.90;;;;;;5013188;28;20481;-93
2024/03/22 11:18:40;;;;;;;30.33;12.38;;;10.70;99.90;;;;;;5007865;28;20037;-89
2024/03/22 11:21:08;;;;;;;26.30;12.85;;;10.70;99.90;;;;;;5011517;28;20026;-86
2024/03/22 11:23:37;;;;;;;22.85;12.75;;;10.70;99.90;;;;;;5011877;28;20042;-90
2024/03/22 11:26:03;;;;;;;16.00;11.70;;;10.70;99.90;;;;;;5010645;28;20030;-89
2024/03/22 11:28:30;;;;;;;18.73;11.70;;;10.70;99.90;;;;;;5012696;28;20054;-88
2024/03/22 11:30:56;;;;;;;15.73;11.68;;;10.70;99.90;;;;;;5014687;28;20466;-89
2024/03/22 11:33:22;;;;;;;23.05;11.93;;;10.70;99.90;;;;;;5014544;28;20045;-88
2024/03/22 11:35:49;;;;;;;16.83;12.25;;;10.70;99.90;;;;;;5019580;28;20033;-89
2024/03/22 11:38:15;;;;;;;15.90;10.20;;;10.90;99.90;;;;;;5014850;28;20161;-87
2024/03/22 11:40:41;;;;;;;15.23;10.68;;;10.80;99.90;;;;;;5006749;28;20044;-88
2024/03/22 11:43:07;;;;;;;10.70;9.05;;;10.80;99.90;;;;;;5010720;28;20438;-85
2024/03/22 11:45:34;;;;;;;15.52;11.10;;;10.80;99.90;;;;;;5012182;28;20025;-89
2024/03/22 11:48:03;;;;;;;16.55;10.80;;;10.70;99.90;;;;;;5009911;28;20053;-88
2024/03/22 11:50:28;;;;;;;12.27;9.90;;;10.70;99.90;;;;;;5007875;28;20109;-87
2024/03/22 11:52:54;;;;;;;12.73;9.73;;;10.70;99.90;;;;;;5008159;28;20118;-89
2024/03/22 11:55:19;;;;;;;11.75;10.02;;;10.70;99.90;;;;;;5008672;28;20176;-87
2024/03/22 11:57:49;;;;;;;16.13;10.50;;;10.90;99.90;;;;;;5011677;28;20018;-90
2024/03/22 12:00:17;;;;;;;14.25;10.88;;;10.70;99.90;;;;;;5011348;28;20022;-87
2024/03/22 12:02:43;;;;;;;20.20;11.55;;;10.70;99.90;;;;;;5014095;28;20021;-88
2024/03/22 12:05:09;;;;;;;18.05;12.07;;;10.80;99.90;;;;;;5034223;28;20488;-85
2024/03/22 12:07:35;;;;;;;15.23;11.45;;;10.80;99.90;;;;;;5012833;28;20039;-90
2024/03/22 12:10:00;;;;;;;15.93;12.20;;;10.80;99.90;;;;;;5005414;28;20108;-88
2024/03/22 12:12:26;;;;;;;20.92;13.70;;;10.80;99.90;;;;;;5015885;28;20030;-89
2024/03/22 12:14:52;;;;;;;22.92;13.88;;;10.80;99.90;;;;;;5013419;28;20026;-89
2024/03/22 12:17:18;;;;;;;20.67;13.45;;;10.80;99.90;;;;;;5014181;28;20033;-86
2024/03/22 12:19:44;;;;;;;18.65;14.30;;;10.90;99.90;;;;;;5014397;28;20484;-88
2024/03/22 12:22:09;;;;;;;29.60;14.38;;;10.90;99.90;;;;;;5009156;28;20132;-89